sensor_id;sensor_type;location;lat;lon;timestamp;pressure;altitude;pressure_sealevel;temperature;humidity
34931;BME280;21134;49.646;8.560;2023-08-06T00:00:37;99583.31;;;15.48;100.00
34931;BME280;21134;49.646;8.560;2023-08-06T00:03:05;99575.38;;;15.53;100.00
34931;BME280;21134;49.646;8.560;2023-08-06T00:05:32;99577.09;;;15.54;100.00
34931;BME280;21134;49.646;8.560;2023-08-06T00:07:58;99564.03;;;15.58;100.00
34931;BME280;21134;49.646;8.560;2023-08-06T00:10:25;99563.06;;;15.61;100.00
34931;BME280;21134;49.646;8.560;2023-08-06T00:12:51;99575.78;;;15.66;100.00
34931;BME280;21134;49.646;8.560;2023-08-06T00:15:18;99566.22;;;15.69;100.00
34931;BME280;21134;49.646;8.560;2023-08-06T00:17:44;99567.13;;;15.68;100.00
34931;BME280;21134;49.646;8.560;2023-08-06T00:20:12;99556.72;;;15.71;100.00
34931;BME280;21134;49.646;8.560;2023-08-06T00:22:38;99553.06;;;15.77;100.00
34931;BME280;21134;49.646;8.560;2023-08-06T00:25:06;99540.94;;;15.79;100.00
34931;BME280;21134;49.646;8.560;2023-08-06T00:27:32;99542.78;;;15.75;100.00
34931;BME280;21134;49.646;8.560;2023-08-06T00:29:59;99538.53;;;15.74;100.00
34931;BME280;21134;49.646;8.560;2023-08-06T00:32:25;99535.59;;;15.60;100.00
34931;BME280;21134;49.646;8.560;2023-08-06T00:34:51;99533.81;;;15.62;100.00
34931;BME280;21134;49.646;8.560;2023-08-06T00:37:19;99529.66;;;15.58;100.00
34931;BME280;21134;49.646;8.560;2023-08-06T00:39:46;99529.47;;;15.63;100.00
34931;BME280;21134;49.646;8.560;2023-08-06T00:42:12;99521.81;;;15.61;100.00
34931;BME280;21134;49.646;8.560;2023-08-06T00:44:39;99518.28;;;15.64;100.00
34931;BME280;21134;49.646;8.560;2023-08-06T00:47:07;99514.72;;;15.68;100.00
34931;BME280;21134;49.646;8.560;2023-08-06T00:49:35;99517.06;;;15.74;100.00
34931;BME280;21134;49.646;8.560;2023-08-06T00:52:02;99513.66;;;15.73;100.00
34931;BME280;21134;49.646;8.560;2023-08-06T00:54:31;99511.78;;;15.77;100.00
34931;BME280;21134;49.646;8.560;2023-08-06T00:56:58;99509.50;;;15.69;100.00
34931;BME280;21134;49.646;8.560;2023-08-06T00:59:25;99507.00;;;15.66;100.00
34931;BME280;21134;49.646;8.560;2023-08-06T01:01:52;99510.47;;;15.67;100.00
34931;BME280;21134;49.646;8.560;2023-08-06T01:04:19;99502.66;;;15.68;100.00
34931;BME280;21134;49.646;8.560;2023-08-06T01:06:47;99499.97;;;15.71;100.00
34931;BME280;21134;49.646;8.560;2023-08-06T01:09:24;99501.41;;;15.78;100.00
34931;BME280;21134;49.646;8.560;2023-08-06T01:11:59;99501.38;;;15.80;100.00
34931;BME280;21134;49.646;8.560;2023-08-06T01:14:31;99503.94;;;15.80;100.00
34931;BME280;21134;49.646;8.560;2023-08-06T01:17:01;99494.47;;;15.80;100.00
34931;BME280;21134;49.646;8.560;2023-08-06T01:19:28;99494.38;;;15.82;100.00
34931;BME280;21134;49.646;8.560;2023-08-06T01:21:55;99489.22;;;15.82;100.00
34931;BME280;21134;49.646;8.560;2023-08-06T01:24:22;99478.25;;;15.77;100.00
34931;BME280;21134;49.646;8.560;2023-08-06T01:26:56;99471.59;;;15.71;100.00
34931;BME280;21134;49.646;8.560;2023-08-06T01:29:31;99481.06;;;15.71;100.00
34931;BME280;21134;49.646;8.560;2023-08-06T01:32:01;99481.84;;;15.73;100.00
34931;BME280;21134;49.646;8.560;2023-08-06T01:34:31;99475.97;;;15.69;100.00
34931;BME280;21134;49.646;8.560;2023-08-06T01:37:00;99474.38;;;15.67;100.00
34931;BME280;21134;49.646;8.560;2023-08-06T01:39:27;99472.81;;;15.61;100.00
34931;BME280;21134;49.646;8.560;2023-08-06T01:41:54;99460.66;;;15.65;100.00
34931;BME280;21134;49.646;8.560;2023-08-06T01:44:20;99473.47;;;15.68;100.00
34931;BME280;21134;49.646;8.560;2023-08-06T01:46:47;99464.69;;;15.72;100.00
34931;BME280;21134;49.646;8.560;2023-08-06T01:49:13;99463.75;;;15.74;100.00
34931;BME280;21134;49.646;8.560;2023-08-06T01:51:40;99467.88;;;15.78;100.00
34931;BME280;21134;49.646;8.560;2023-08-06T01:54:08;99460.72;;;15.85;100.00
34931;BME280;21134;49.646;8.560;2023-08-06T01:56:34;99460.72;;;15.85;100.00
34931;BME280;21134;49.646;8.560;2023-08-06T01:59:00;99459.91;;;15.85;100.00
34931;BME280;21134;49.646;8.560;2023-08-06T02:01:27;99460.44;;;15.93;100.00
34931;BME280;21134;49.646;8.560;2023-08-06T02:03:53;99462.25;;;15.91;100.00
34931;BME280;21134;49.646;8.560;2023-08-06T02:06:20;99459.63;;;15.92;100.00
34931;BME280;21134;49.646;8.560;2023-08-06T02:08:46;99467.34;;;15.92;100.00
34931;BME280;21134;49.646;8.560;2023-08-06T02:11:14;99457.09;;;15.91;100.00
34931;BME280;21134;49.646;8.560;2023-08-06T02:13:41;99456.25;;;15.90;100.00
34931;BME280;21134;49.646;8.560;2023-08-06T02:16:07;99455.56;;;15.85;100.00
34931;BME280;21134;49.646;8.560;2023-08-06T02:18:34;99449.53;;;15.86;100.00
34931;BME280;21134;49.646;8.560;2023-08-06T02:21:01;99446.25;;;15.83;100.00
34931;BME280;21134;49.646;8.560;2023-08-06T02:23:27;99438.63;;;15.79;100.00
34931;BME280;21134;49.646;8.560;2023-08-06T02:25:58;99437.03;;;15.75;100.00
34931;BME280;21134;49.646;8.560;2023-08-06T02:28:26;99436.28;;;15.73;100.00
34931;BME280;21134;49.646;8.560;2023-08-06T02:30:53;99431.13;;;15.73;100.00
34931;BME280;21134;49.646;8.560;2023-08-06T02:33:19;99434.59;;;15.72;100.00
34931;BME280;21134;49.646;8.560;2023-08-06T02:35:46;99425.50;;;15.62;100.00
34931;BME280;21134;49.646;8.560;2023-08-06T02:38:12;99430.84;;;15.57;100.00
34931;BME280;21134;49.646;8.560;2023-08-06T02:40:43;99429.34;;;15.52;100.00
34931;BME280;21134;49.646;8.560;2023-08-06T02:43:09;99427.00;;;15.46;100.00
34931;BME280;21134;49.646;8.560;2023-08-06T02:45:37;99437.34;;;15.44;100.00
34931;BME280;21134;49.646;8.560;2023-08-06T02:48:04;99434.91;;;15.41;100.00
34931;BME280;21134;49.646;8.560;2023-08-06T02:50:30;99433.16;;;15.42;100.00
34931;BME280;21134;49.646;8.560;2023-08-06T02:52:57;99435.50;;;15.48;100.00
34931;BME280;21134;49.646;8.560;2023-08-06T02:55:23;99419.97;;;15.49;100.00
34931;BME280;21134;49.646;8.560;2023-08-06T02:57:50;99422.31;;;15.55;100.00
34931;BME280;21134;49.646;8.560;2023-08-06T03:00:16;99418.94;;;15.53;100.00
34931;BME280;21134;49.646;8.560;2023-08-06T03:02:44;99415.50;;;15.54;100.00
34931;BME280;21134;49.646;8.560;2023-08-06T03:05:11;99426.44;;;15.59;100.00
34931;BME280;21134;49.646;8.560;2023-08-06T03:07:37;99419.38;;;15.65;100.00
34931;BME280;21134;49.646;8.560;2023-08-06T03:10:04;99421.88;;;15.66;100.00
34931;BME280;21134;49.646;8.560;2023-08-06T03:12:31;99415.06;;;15.65;100.00
34931;BME280;21134;49.646;8.560;2023-08-06T03:14:57;99416.84;;;15.63;100.00
34931;BME280;21134;49.646;8.560;2023-08-06T03:17:24;99417.66;;;15.65;100.00
34931;BME280;21134;49.646;8.560;2023-08-06T03:19:51;99409.91;;;15.67;100.00
34931;BME280;21134;49.646;8.560;2023-08-06T03:22:18;99406.53;;;15.63;100.00
34931;BME280;21134;49.646;8.560;2023-08-06T03:24:44;99408.16;;;15.66;100.00
34931;BME280;21134;49.646;8.560;2023-08-06T03:27:11;99399.59;;;15.65;100.00
34931;BME280;21134;49.646;8.560;2023-08-06T03:29:37;99401.47;;;15.62;100.00
34931;BME280;21134;49.646;8.560;2023-08-06T03:32:04;99404.94;;;15.61;100.00
34931;BME280;21134;49.646;8.560;2023-08-06T03:34:31;99396.34;;;15.60;100.00
34931;BME280;21134;49.646;8.560;2023-08-06T03:36:59;99395.63;;;15.56;100.00
34931;BME280;21134;49.646;8.560;2023-08-06T03:39:25;99388.38;;;15.66;100.00
34931;BME280;21134;49.646;8.560;2023-08-06T03:41:52;99391.06;;;15.63;100.00
34931;BME280;21134;49.646;8.560;2023-08-06T03:44:18;99395.38;;;15.63;100.00
34931;BME280;21134;49.646;8.560;2023-08-06T03:46:45;99401.34;;;15.65;100.00
34931;BME280;21134;49.646;8.560;2023-08-06T03:49:11;99397.25;;;15.59;100.00
34931;BME280;21134;49.646;8.560;2023-08-06T03:51:38;99391.25;;;15.58;100.00
34931;BME280;21134;49.646;8.560;2023-08-06T03:54:05;99396.53;;;15.55;100.00
34931;BME280;21134;49.646;8.560;2023-08-06T03:56:32;99393.25;;;15.52;100.00
34931;BME280;21134;49.646;8.560;2023-08-06T03:58:58;99398.50;;;15.49;100.00
34931;BME280;21134;49.646;8.560;2023-08-06T04:01:25;99394.28;;;15.48;100.00
34931;BME280;21134;49.646;8.560;2023-08-06T04:03:51;99392.53;;;15.48;100.00
34931;BME280;21134;49.646;8.560;2023-08-06T04:06:18;99390.91;;;15.46;100.00
34931;BME280;21134;49.646;8.560;2023-08-06T04:08:44;99395.22;;;15.45;100.00
34931;BME280;21134;49.646;8.560;2023-08-06T04:11:12;99400.72;;;15.36;100.00
34931;BME280;21134;49.646;8.560;2023-08-06T04:13:42;99402.41;;;15.37;100.00
34931;BME280;21134;49.646;8.560;2023-08-06T04:16:08;99397.91;;;15.42;100.00
34931;BME280;21134;49.646;8.560;2023-08-06T04:18:35;99401.44;;;15.40;100.00
34931;BME280;21134;49.646;8.560;2023-08-06T04:21:02;99393.81;;;15.37;100.00
34931;BME280;21134;49.646;8.560;2023-08-06T04:23:28;99393.81;;;15.37;100.00
34931;BME280;21134;49.646;8.560;2023-08-06T04:25:56;99390.28;;;15.39;100.00
34931;BME280;21134;49.646;8.560;2023-08-06T04:28:24;99393.81;;;15.37;100.00
34931;BME280;21134;49.646;8.560;2023-08-06T04:30:50;99398.19;;;15.34;100.00
34931;BME280;21134;49.646;8.560;2023-08-06T04:33:18;99394.75;;;15.35;100.00
34931;BME280;21134;49.646;8.560;2023-08-06T04:35:45;99390.53;;;15.33;100.00
34931;BME280;21134;49.646;8.560;2023-08-06T04:38:11;99399.94;;;15.34;100.00
34931;BME280;21134;49.646;8.560;2023-08-06T04:40:38;99394.78;;;15.34;100.00
34931;BME280;21134;49.646;8.560;2023-08-06T04:43:04;99398.16;;;15.36;100.00
34931;BME280;21134;49.646;8.560;2023-08-06T04:45:32;99397.34;;;15.34;100.00
34931;BME280;21134;49.646;8.560;2023-08-06T04:47:59;99395.69;;;15.33;100.00
34931;BME280;21134;49.646;8.560;2023-08-06T04:50:25;99396.38;;;15.38;100.00
34931;BME280;21134;49.646;8.560;2023-08-06T04:52:51;99393.03;;;15.34;100.00
34931;BME280;21134;49.646;8.560;2023-08-06T04:55:18;99389.81;;;15.29;100.00
34931;BME280;21134;49.646;8.560;2023-08-06T04:57:44;99392.38;;;15.29;100.00
34931;BME280;21134;49.646;8.560;2023-08-06T05:04:11;99394.78;;;15.34;100.00
34931;BME280;21134;49.646;8.560;2023-08-06T05:06:37;99390.41;;;15.36;100.00
34931;BME280;21134;49.646;8.560;2023-08-06T05:09:04;99395.56;;;15.36;100.00
34931;BME280;21134;49.646;8.560;2023-08-06T05:11:31;99392.03;;;15.39;100.00
34931;BME280;21134;49.646;8.560;2023-08-06T05:13:57;99394.78;;;15.34;100.00
34931;BME280;21134;49.646;8.560;2023-08-06T05:16:24;99393.09;;;15.33;100.00
34931;BME280;21134;49.646;8.560;2023-08-06T05:18:50;99395.38;;;15.41;100.00
34931;BME280;21134;49.646;8.560;2023-08-06T05:21:18;99401.56;;;15.37;100.00
34931;BME280;21134;49.646;8.560;2023-08-06T05:23:44;99393.81;;;15.37;100.00
34931;BME280;21134;49.646;8.560;2023-08-06T05:26:11;99391.38;;;15.33;100.00
34931;BME280;21134;49.646;8.560;2023-08-06T05:28:39;99392.19;;;15.34;100.00
34931;BME280;21134;49.646;8.560;2023-08-06T05:31:06;99390.41;;;15.36;100.00
34931;BME280;21134;49.646;8.560;2023-08-06T05:33:32;99388.66;;;15.37;100.00
34931;BME280;21134;49.646;8.560;2023-08-06T05:35:59;99395.56;;;15.36;100.00
34931;BME280;21134;49.646;8.560;2023-08-06T05:38:27;99399.06;;;15.35;100.00
34931;BME280;21134;49.646;8.560;2023-08-06T05:40:53;99395.72;;;15.31;100.00
34931;BME280;21134;49.646;8.560;2023-08-06T05:43:20;99399.16;;;15.32;100.00
34931;BME280;21134;49.646;8.560;2023-08-06T05:45:49;99404.97;;;15.37;100.00
34931;BME280;21134;49.646;8.560;2023-08-06T05:48:15;99400.66;;;15.38;100.00
34931;BME280;21134;49.646;8.560;2023-08-06T05:50:42;99408.50;;;15.34;100.00
34931;BME280;21134;49.646;8.560;2023-08-06T05:53:08;99409.59;;;15.29;100.00
34931;BME280;21134;49.646;8.560;2023-08-06T05:55:36;99406.22;;;15.27;100.00
34931;BME280;21134;49.646;8.560;2023-08-06T05:58:03;99408.81;;;15.27;100.00
34931;BME280;21134;49.646;8.560;2023-08-06T06:00:29;99412.28;;;15.26;100.00
34931;BME280;21134;49.646;8.560;2023-08-06T06:02:56;99403.75;;;15.24;100.00
34931;BME280;21134;49.646;8.560;2023-08-06T06:05:22;99408.13;;;15.22;100.00
34931;BME280;21134;49.646;8.560;2023-08-06T06:07:49;99407.06;;;15.27;100.00
34931;BME280;21134;49.646;8.560;2023-08-06T06:10:15;99408.63;;;15.31;100.00
34931;BME280;21134;49.646;8.560;2023-08-06T06:12:43;99413.00;;;15.29;100.00
34931;BME280;21134;49.646;8.560;2023-08-06T06:15:09;99414.41;;;15.38;100.00
34931;BME280;21134;49.646;8.560;2023-08-06T06:17:36;99422.78;;;15.43;100.00
34931;BME280;21134;49.646;8.560;2023-08-06T06:20:03;99417.28;;;15.52;100.00
34931;BME280;21134;49.646;8.560;2023-08-06T06:22:30;99411.94;;;15.57;100.00
34931;BME280;21134;49.646;8.560;2023-08-06T06:24:56;99418.47;;;15.67;100.00
34931;BME280;21134;49.646;8.560;2023-08-06T06:27:23;99418.34;;;15.70;100.00
34931;BME280;21134;49.646;8.560;2023-08-06T06:29:51;99419.22;;;15.69;100.00
34931;BME280;21134;49.646;8.560;2023-08-06T06:32:19;99420.22;;;15.65;100.00
34931;BME280;21134;49.646;8.560;2023-08-06T06:34:46;99423.75;;;15.63;100.00
34931;BME280;21134;49.646;8.560;2023-08-06T06:37:12;99427.97;;;15.65;100.00
34931;BME280;21134;49.646;8.560;2023-08-06T06:39:39;99430.44;;;15.68;100.00
34931;BME280;21134;49.646;8.560;2023-08-06T06:42:06;99433.19;;;15.64;100.00
34931;BME280;21134;49.646;8.560;2023-08-06T06:44:32;99432.69;;;15.77;100.00
34931;BME280;21134;49.646;8.560;2023-08-06T06:47:00;99437.03;;;15.75;100.00
34931;BME280;21134;49.646;8.560;2023-08-06T06:49:26;99431.16;;;15.72;100.00
34931;BME280;21134;49.646;8.560;2023-08-06T06:51:53;99429.63;;;15.68;100.00
34931;BME280;21134;49.646;8.560;2023-08-06T06:54:19;99428.88;;;15.64;100.00
34931;BME280;21134;49.646;8.560;2023-08-06T06:56:46;99431.25;;;15.70;100.00
34931;BME280;21134;49.646;8.560;2023-08-06T06:59:12;99429.25;;;15.77;100.00
34931;BME280;21134;49.646;8.560;2023-08-06T07:01:39;99430.69;;;15.84;100.00
34931;BME280;21134;49.646;8.560;2023-08-06T07:04:06;99429.91;;;15.82;100.00
34931;BME280;21134;49.646;8.560;2023-08-06T07:06:33;99428.91;;;15.86;100.00
34931;BME280;21134;49.646;8.560;2023-08-06T07:08:59;99426.56;;;15.80;100.00
34931;BME280;21134;49.646;8.560;2023-08-06T07:11:26;99423.28;;;15.76;100.00
34931;BME280;21134;49.646;8.560;2023-08-06T07:13:56;99428.66;;;15.70;100.00
34931;BME280;21134;49.646;8.560;2023-08-06T07:16:24;99429.44;;;15.72;100.00
34931;BME280;21134;49.646;8.560;2023-08-06T07:18:51;99430.34;;;15.71;100.00
34931;BME280;21134;49.646;8.560;2023-08-06T07:21:19;99428.53;;;15.73;100.00
34931;BME280;21134;49.646;8.560;2023-08-06T07:23:46;99438.53;;;15.81;100.00
34931;BME280;21134;49.646;8.560;2023-08-06T07:26:14;99432.25;;;15.88;100.00
34931;BME280;21134;49.646;8.560;2023-08-06T07:28:41;99426.38;;;15.85;100.00
34931;BME280;21134;49.646;8.560;2023-08-06T07:31:07;99423.63;;;15.89;100.00
34931;BME280;21134;49.646;8.560;2023-08-06T07:33:33;99440.16;;;16.06;100.00
34931;BME280;21134;49.646;8.560;2023-08-06T07:36:07;99439.13;;;16.10;100.00
34931;BME280;21134;49.646;8.560;2023-08-06T07:38:35;99442.75;;;16.06;100.00
34931;BME280;21134;49.646;8.560;2023-08-06T07:41:01;99441.94;;;16.03;100.00
34931;BME280;21134;49.646;8.560;2023-08-06T07:43:28;99445.84;;;16.14;100.00
34931;BME280;21134;49.646;8.560;2023-08-06T07:45:57;99437.78;;;16.21;100.00
34931;BME280;21134;49.646;8.560;2023-08-06T07:48:24;99438.63;;;16.22;100.00
34931;BME280;21134;49.646;8.560;2023-08-06T07:50:51;99434.19;;;16.25;100.00
34931;BME280;21134;49.646;8.560;2023-08-06T07:53:19;99436.03;;;16.42;100.00
34931;BME280;21134;49.646;8.560;2023-08-06T07:55:49;99436.91;;;16.63;100.00
34931;BME280;21134;49.646;8.560;2023-08-06T07:58:16;99426.41;;;16.87;100.00
34931;BME280;21134;49.646;8.560;2023-08-06T08:00:42;99431.44;;;17.10;100.00
34931;BME280;21134;49.646;8.560;2023-08-06T08:03:10;99429.19;;;17.22;100.00
34931;BME280;21134;49.646;8.560;2023-08-06T08:05:37;99419.34;;;17.49;100.00
34931;BME280;21134;49.646;8.560;2023-08-06T08:08:03;99425.47;;;17.65;100.00
34931;BME280;21134;49.646;8.560;2023-08-06T08:10:31;99419.75;;;18.12;100.00
34931;BME280;21134;49.646;8.560;2023-08-06T08:12:59;99422.63;;;18.58;98.83
34931;BME280;21134;49.646;8.560;2023-08-06T08:15:25;99418.97;;;18.79;95.10
34931;BME280;21134;49.646;8.560;2023-08-06T08:17:52;99431.44;;;18.71;96.40
34931;BME280;21134;49.646;8.560;2023-08-06T08:20:18;99419.13;;;18.76;95.73
34931;BME280;21134;49.646;8.560;2023-08-06T08:22:45;99428.97;;;19.03;95.03
34931;BME280;21134;49.646;8.560;2023-08-06T08:25:11;99418.56;;;18.87;94.10
34931;BME280;21134;49.646;8.560;2023-08-06T08:27:38;99418.41;;;18.90;93.62
34931;BME280;21134;49.646;8.560;2023-08-06T08:30:07;99412.88;;;18.80;93.02
34931;BME280;21134;49.646;8.560;2023-08-06T08:32:33;99408.50;;;18.81;93.59
34931;BME280;21134;49.646;8.560;2023-08-06T08:35:00;99409.53;;;18.94;93.90
34931;BME280;21134;49.646;8.560;2023-08-06T08:37:26;99407.97;;;19.08;93.61
34931;BME280;21134;49.646;8.560;2023-08-06T08:39:52;99410.00;;;19.18;92.26
34931;BME280;21134;49.646;8.560;2023-08-06T08:42:19;99407.31;;;19.36;93.42
34931;BME280;21134;49.646;8.560;2023-08-06T08:44:46;99404.56;;;19.70;91.36
34931;BME280;21134;49.646;8.560;2023-08-06T08:47:14;99402.06;;;19.69;91.33
34931;BME280;21134;49.646;8.560;2023-08-06T08:49:42;99398.38;;;19.73;90.18
34931;BME280;21134;49.646;8.560;2023-08-06T08:52:10;99392.53;;;19.69;89.05
34931;BME280;21134;49.646;8.560;2023-08-06T08:54:38;99380.09;;;19.59;89.70
34931;BME280;21134;49.646;8.560;2023-08-06T08:57:04;99382.63;;;19.76;88.50
34931;BME280;21134;49.646;8.560;2023-08-06T08:59:33;99383.81;;;19.70;90.36
34931;BME280;21134;49.646;8.560;2023-08-06T09:02:00;99392.19;;;19.44;90.81
34931;BME280;21134;49.646;8.560;2023-08-06T09:04:29;99390.25;;;19.00;92.89
34931;BME280;21134;49.646;8.560;2023-08-06T09:06:58;99390.63;;;18.59;92.04
34931;BME280;21134;49.646;8.560;2023-08-06T09:09:26;99401.41;;;18.34;92.20
34931;BME280;21134;49.646;8.560;2023-08-06T09:11:55;99390.28;;;18.15;91.86
34931;BME280;21134;49.646;8.560;2023-08-06T09:14:26;99402.06;;;17.85;93.26
34931;BME280;21134;49.646;8.560;2023-08-06T09:16:53;99402.88;;;17.69;94.56
34931;BME280;21134;49.646;8.560;2023-08-06T09:19:20;99396.22;;;17.63;94.79
34931;BME280;21134;49.646;8.560;2023-08-06T09:21:51;99402.63;;;17.73;94.48
34931;BME280;21134;49.646;8.560;2023-08-06T09:24:17;99394.47;;;17.82;93.90
34931;BME280;21134;49.646;8.560;2023-08-06T09:26:44;99388.75;;;17.93;94.12
34931;BME280;21134;49.646;8.560;2023-08-06T09:29:11;99391.41;;;18.09;91.79
34931;BME280;21134;49.646;8.560;2023-08-06T09:31:41;99388.72;;;18.63;90.61
34931;BME280;21134;49.646;8.560;2023-08-06T09:34:11;99380.53;;;19.19;87.51
34931;BME280;21134;49.646;8.560;2023-08-06T09:36:40;99384.91;;;19.19;83.64
34931;BME280;21134;49.646;8.560;2023-08-06T09:39:14;99382.81;;;19.41;82.37
34931;BME280;21134;49.646;8.560;2023-08-06T09:41:41;99385.63;;;19.37;79.45
34931;BME280;21134;49.646;8.560;2023-08-06T09:44:15;99385.31;;;19.27;80.51
34931;BME280;21134;49.646;8.560;2023-08-06T09:46:43;99375.34;;;19.51;80.53
34931;BME280;21134;49.646;8.560;2023-08-06T09:49:09;99384.56;;;19.72;80.26
34931;BME280;21134;49.646;8.560;2023-08-06T09:51:37;99378.78;;;19.51;76.90
34931;BME280;21134;49.646;8.560;2023-08-06T09:54:05;99384.97;;;19.49;79.08
34931;BME280;21134;49.646;8.560;2023-08-06T09:56:34;99393.03;;;19.28;78.97
34931;BME280;21134;49.646;8.560;2023-08-06T09:59:04;99384.75;;;18.73;79.40
34931;BME280;21134;49.646;8.560;2023-08-06T10:01:32;99388.38;;;18.69;81.18
34931;BME280;21134;49.646;8.560;2023-08-06T10:03:59;99378.44;;;18.94;79.92
34931;BME280;21134;49.646;8.560;2023-08-06T10:06:28;99382.16;;;19.22;76.61
34931;BME280;21134;49.646;8.560;2023-08-06T10:08:55;99390.16;;;19.17;77.13
34931;BME280;21134;49.646;8.560;2023-08-06T10:11:22;99393.41;;;18.89;78.58
34931;BME280;21134;49.646;8.560;2023-08-06T10:13:55;99395.50;;;18.65;79.98
34931;BME280;21134;49.646;8.560;2023-08-06T10:16:24;99394.59;;;18.49;83.99
34931;BME280;21134;49.646;8.560;2023-08-06T10:18:51;99401.03;;;18.24;84.95
34931;BME280;21134;49.646;8.560;2023-08-06T10:21:18;99404.94;;;18.16;87.18
34931;BME280;21134;49.646;8.560;2023-08-06T10:23:53;99403.69;;;18.40;84.01
34931;BME280;21134;49.646;8.560;2023-08-06T10:26:20;99400.81;;;18.62;85.24
34931;BME280;21134;49.646;8.560;2023-08-06T10:28:46;99404.69;;;18.88;83.02
34931;BME280;21134;49.646;8.560;2023-08-06T10:31:14;99397.81;;;18.87;80.58
34931;BME280;21134;49.646;8.560;2023-08-06T10:33:42;99401.81;;;18.77;82.40
34931;BME280;21134;49.646;8.560;2023-08-06T10:36:09;99416.09;;;18.51;80.90
34931;BME280;21134;49.646;8.560;2023-08-06T10:38:44;99426.63;;;18.13;83.13
34931;BME280;21134;49.646;8.560;2023-08-06T10:41:15;99424.44;;;17.86;83.15
34931;BME280;21134;49.646;8.560;2023-08-06T10:43:42;99436.16;;;17.57;86.48
34931;BME280;21134;49.646;8.560;2023-08-06T10:46:11;99439.94;;;17.50;86.60
34931;BME280;21134;49.646;8.560;2023-08-06T10:48:40;99438.31;;;17.48;86.18
34931;BME280;21134;49.646;8.560;2023-08-06T10:51:07;99430.72;;;17.44;88.84
34931;BME280;21134;49.646;8.560;2023-08-06T10:53:34;99432.59;;;17.22;87.18
34931;BME280;21134;49.646;8.560;2023-08-06T10:56:01;99430.22;;;17.17;88.97
34931;BME280;21134;49.646;8.560;2023-08-06T10:58:31;99430.97;;;17.19;87.49
34931;BME280;21134;49.646;8.560;2023-08-06T11:00:58;99435.28;;;17.20;85.74
34931;BME280;21134;49.646;8.560;2023-08-06T11:03:26;99435.03;;;17.06;85.01
34931;BME280;21134;49.646;8.560;2023-08-06T11:05:54;99443.34;;;17.13;84.87
34931;BME280;21134;49.646;8.560;2023-08-06T11:08:23;99437.78;;;17.22;84.66
34931;BME280;21134;49.646;8.560;2023-08-06T11:10:49;99436.88;;;17.23;84.77
34931;BME280;21134;49.646;8.560;2023-08-06T11:13:16;99452.44;;;17.22;86.52
34931;BME280;21134;49.646;8.560;2023-08-06T11:15:44;99461.53;;;17.30;82.87
34931;BME280;21134;49.646;8.560;2023-08-06T11:18:11;99460.91;;;17.44;82.56
34931;BME280;21134;49.646;8.560;2023-08-06T11:20:38;99467.41;;;17.53;81.51
34931;BME280;21134;49.646;8.560;2023-08-06T11:23:09;99473.31;;;17.74;79.67
34931;BME280;21134;49.646;8.560;2023-08-06T11:25:36;99481.47;;;17.85;80.08
34931;BME280;21134;49.646;8.560;2023-08-06T11:28:03;99479.81;;;17.84;79.27
34931;BME280;21134;49.646;8.560;2023-08-06T11:30:29;99478.88;;;17.85;79.04
34931;BME280;21134;49.646;8.560;2023-08-06T11:32:56;99475.38;;;17.86;79.03
34931;BME280;21134;49.646;8.560;2023-08-06T11:35:22;99485.78;;;18.03;78.11
34931;BME280;21134;49.646;8.560;2023-08-06T11:37:49;99495.72;;;17.94;77.30
34931;BME280;21134;49.646;8.560;2023-08-06T11:40:17;99487.63;;;17.82;77.51
34931;BME280;21134;49.646;8.560;2023-08-06T11:42:46;99485.88;;;17.83;76.55
34931;BME280;21134;49.646;8.560;2023-08-06T11:45:13;99491.19;;;17.80;76.28
34931;BME280;21134;49.646;8.560;2023-08-06T11:47:39;99493.72;;;17.81;76.67
34931;BME280;21134;49.646;8.560;2023-08-06T11:50:07;99505.59;;;17.85;76.47
34931;BME280;21134;49.646;8.560;2023-08-06T11:52:33;99510.91;;;17.82;77.01
34931;BME280;21134;49.646;8.560;2023-08-06T11:55:00;99511.88;;;17.80;75.95
34931;BME280;21134;49.646;8.560;2023-08-06T11:57:30;99515.88;;;17.87;75.21
34931;BME280;21134;49.646;8.560;2023-08-06T12:00:02;99525.81;;;17.77;76.56
34931;BME280;21134;49.646;8.560;2023-08-06T12:02:31;99531.28;;;17.90;74.99
34931;BME280;21134;49.646;8.560;2023-08-06T12:05:00;99539.09;;;17.88;74.62
34931;BME280;21134;49.646;8.560;2023-08-06T12:07:28;99539.59;;;17.78;73.88
34931;BME280;21134;49.646;8.560;2023-08-06T12:09:55;99537.84;;;17.78;75.20
34931;BME280;21134;49.646;8.560;2023-08-06T12:12:21;99542.56;;;17.69;74.45
34931;BME280;21134;49.646;8.560;2023-08-06T12:14:49;99544.25;;;17.70;74.53
34931;BME280;21134;49.646;8.560;2023-08-06T12:17:16;99550.59;;;17.62;74.98
34931;BME280;21134;49.646;8.560;2023-08-06T12:19:44;99562.34;;;17.51;74.62
34931;BME280;21134;49.646;8.560;2023-08-06T12:22:10;99551.38;;;17.46;71.86
34931;BME280;21134;49.646;8.560;2023-08-06T12:24:38;99558.34;;;17.43;71.81
34931;BME280;21134;49.646;8.560;2023-08-06T12:27:05;99582.06;;;17.53;71.97
34931;BME280;21134;49.646;8.560;2023-08-06T12:29:31;99563.16;;;17.51;70.64
34931;BME280;21134;49.646;8.560;2023-08-06T12:31:59;99570.66;;;17.57;71.24
34931;BME280;21134;49.646;8.560;2023-08-06T12:34:26;99576.75;;;17.75;70.50
34931;BME280;21134;49.646;8.560;2023-08-06T12:36:52;99580.78;;;17.82;68.26
34931;BME280;21134;49.646;8.560;2023-08-06T12:39:19;99576.94;;;17.91;70.37
34931;BME280;21134;49.646;8.560;2023-08-06T12:41:45;99575.75;;;17.98;68.94
34931;BME280;21134;49.646;8.560;2023-08-06T12:44:12;99583.31;;;18.03;67.96
34931;BME280;21134;49.646;8.560;2023-08-06T12:46:38;99591.03;;;18.22;67.79
34931;BME280;21134;49.646;8.560;2023-08-06T12:49:06;99585.78;;;18.23;68.99
34931;BME280;21134;49.646;8.560;2023-08-06T12:51:33;99601.03;;;18.29;69.02
34931;BME280;21134;49.646;8.560;2023-08-06T12:54:00;99610.16;;;18.19;69.24
34931;BME280;21134;49.646;8.560;2023-08-06T12:56:26;99620.03;;;18.11;69.18